Time;durP1;ratioP1;P1;durP2;ratioP2;P2;SDS_P1;SDS_P2;PMS_P1;PMS_P2;Temp;Humidity;BMP_temperature;BMP_pressure;BME280_temperature;BME280_humidity;BME280_pressure;Samples;Min_cycle;Max_cycle;Signal;HPM_P1;HPM_P2
2022/03/29 00:01:40;;;;;;;11.45;9.70;;;9.30;53.50;;;;;;5079799;28;20202;-90
2022/03/29 00:04:07;;;;;;;12.30;8.88;;;9.60;54.60;;;;;;5071549;28;20550;-90
2022/03/29 00:06:33;;;;;;;12.73;9.70;;;9.20;53.90;;;;;;5078179;28;20517;-90
2022/03/29 00:09:03;;;;;;;10.70;8.95;;;9.20;53.80;;;;;;5090287;28;21531;-90
2022/03/29 00:11:31;;;;;;;13.27;10.30;;;9.20;54.00;;;;;;5074941;28;20225;-90
2022/03/29 00:14:02;;;;;;;14.07;9.15;;;9.20;53.90;;;;;;5091870;28;20244;-90
2022/03/29 00:16:30;;;;;;;12.52;9.88;;;9.30;54.30;;;;;;5073324;28;20223;-90
2022/03/29 00:18:57;;;;;;;16.52;9.38;;;9.20;54.20;;;;;;5081905;28;20293;-90
2022/03/29 00:21:32;;;;;;;12.48;9.77;;;9.20;54.10;;;;;;5083873;28;21050;-91
2022/03/29 00:24:02;;;;;;;17.02;10.20;;;9.10;54.10;;;;;;5073209;28;20224;-91
2022/03/29 00:26:31;;;;;;;11.00;8.80;;;9.00;54.60;;;;;;5076591;28;20263;-90
2022/03/29 00:28:59;;;;;;;20.33;10.82;;;8.90;54.90;;;;;;5075506;28;20205;-90
2022/03/29 00:31:28;;;;;;;13.13;9.70;;;8.70;57.20;;;;;;5082301;28;20235;-89
2022/03/29 00:33:55;;;;;;;11.48;10.20;;;9.10;54.90;;;;;;5081445;28;20717;-89
2022/03/29 00:36:22;;;;;;;13.48;9.90;;;8.90;54.80;;;;;;5080310;28;20211;-89
2022/03/29 00:38:49;;;;;;;17.75;10.07;;;10.90;55.70;;;;;;5073590;28;20314;-89
2022/03/29 00:41:17;;;;;;;13.82;10.68;;;9.30;54.80;;;;;;5076613;28;20269;-89
2022/03/29 00:43:44;;;;;;;13.38;8.93;;;8.80;54.60;;;;;;5089749;28;20212;-88
2022/03/29 00:46:12;;;;;;;20.85;10.82;;;8.80;54.80;;;;;;5076683;28;20204;-89
2022/03/29 00:48:39;;;;;;;13.88;10.55;;;8.70;55.20;;;;;;5078122;28;20216;-88
2022/03/29 00:51:07;;;;;;;12.90;10.10;;;8.60;54.90;;;;;;5075958;28;20282;-89
2022/03/29 00:53:34;;;;;;;17.05;10.43;;;8.60;54.70;;;;;;5088942;28;20601;-88
2022/03/29 00:56:02;;;;;;;12.90;10.35;;;8.60;54.50;;;;;;5076626;28;20208;-89
2022/03/29 00:58:32;;;;;;;12.43;9.60;;;9.30;55.90;;;;;;5070225;28;20218;-89
2022/03/29 01:01:01;;;;;;;13.25;10.10;;;8.70;55.20;;;;;;5086659;28;20200;-89
2022/03/29 01:03:28;;;;;;;13.60;9.50;;;8.70;54.70;;;;;;5078159;28;20212;-89
2022/03/29 01:05:55;;;;;;;12.45;8.85;;;8.70;54.70;;;;;;5075220;28;20218;-89
2022/03/29 01:08:24;;;;;;;13.25;9.77;;;8.60;55.10;;;;;;5071126;28;20209;-89
2022/03/29 01:10:52;;;;;;;12.55;9.10;;;8.80;56.20;;;;;;5076751;28;20216;-88
2022/03/29 01:13:20;;;;;;;12.75;9.93;;;8.60;54.90;;;;;;5083962;28;20284;-89
2022/03/29 01:15:49;;;;;;;18.77;10.55;;;8.60;55.00;;;;;;5071124;28;20211;-89
2022/03/29 01:18:18;;;;;;;13.48;9.25;;;8.60;55.10;;;;;;5088423;28;20710;-89
2022/03/29 01:20:49;;;;;;;12.95;8.95;;;8.30;55.60;;;;;;5074236;28;20572;-89
2022/03/29 01:23:18;;;;;;;19.60;10.90;;;8.40;57.60;;;;;;5070027;28;20228;-88
2022/03/29 01:25:47;;;;;;;12.73;9.30;;;8.60;55.00;;;;;;5070243;28;20207;-89
2022/03/29 01:28:16;;;;;;;12.02;9.18;;;8.90;56.00;;;;;;5080277;28;20757;-89
2022/03/29 01:30:44;;;;;;;14.05;9.90;;;8.60;55.10;;;;;;5074064;28;20209;-89
2022/03/29 01:33:12;;;;;;;13.55;9.88;;;8.60;55.60;;;;;;5087474;28;20571;-90
2022/03/29 01:35:40;;;;;;;10.57;9.57;;;8.60;55.20;;;;;;5077039;28;20219;-89
2022/03/29 01:38:08;;;;;;;18.83;10.60;;;8.60;56.50;;;;;;5070882;28;20204;-89
2022/03/29 01:40:37;;;;;;;14.90;9.68;;;8.70;55.40;;;;;;5073683;28;20209;-89
2022/03/29 01:43:05;;;;;;;11.50;9.52;;;8.70;54.90;;;;;;5086646;28;20259;-89
2022/03/29 01:45:33;;;;;;;11.18;9.15;;;8.70;55.40;;;;;;5069786;28;20206;-89
2022/03/29 01:48:00;;;;;;;14.55;9.70;;;8.60;55.70;;;;;;5069274;28;20722;-89
2022/03/29 01:50:27;;;;;;;13.95;9.18;;;8.50;55.80;;;;;;5070104;28;20213;-89
2022/03/29 01:52:55;;;;;;;15.80;10.10;;;8.50;55.60;;;;;;5070843;28;20260;-89
2022/03/29 01:55:22;;;;;;;13.27;9.35;;;8.50;55.20;;;;;;5068362;28;20265;-89
2022/03/29 01:57:53;;;;;;;18.20;11.10;;;8.50;55.40;;;;;;5071321;28;20204;-89
2022/03/29 02:00:33;;;;;;;12.52;10.23;;;8.60;56.90;;;;;;5081117;28;20199;-89
2022/03/29 02:03:01;;;;;;;18.08;10.27;;;8.50;55.20;;;;;;5068316;28;20207;-88
2022/03/29 02:05:30;;;;;;;15.45;10.85;;;8.60;54.70;;;;;;5075644;28;20210;-89
2022/03/29 02:07:57;;;;;;;12.00;9.80;;;8.60;55.00;;;;;;5080005;28;20220;-89
2022/03/29 02:10:24;;;;;;;9.73;8.57;;;8.60;55.00;;;;;;5072903;28;20231;-89
2022/03/29 02:12:53;;;;;;;14.65;10.75;;;8.60;55.30;;;;;;5072597;28;20204;-89
2022/03/29 02:15:20;;;;;;;19.33;10.55;;;8.50;55.40;;;;;;5074114;28;20191;-89
2022/03/29 02:17:49;;;;;;;11.10;9.45;;;8.40;55.80;;;;;;5080483;28;20200;-89
2022/03/29 02:20:17;;;;;;;14.52;9.60;;;8.30;55.80;;;;;;5087118;28;20577;-88
2022/03/29 02:22:44;;;;;;;15.80;9.65;;;8.30;55.70;;;;;;5067844;28;20261;-89
2022/03/29 02:25:12;;;;;;;13.38;9.32;;;8.30;56.00;;;;;;5079893;28;20218;-89
2022/03/29 02:27:39;;;;;;;14.52;9.50;;;8.30;55.70;;;;;;5087860;28;20246;-89
2022/03/29 02:30:10;;;;;;;12.32;10.07;;;8.30;56.00;;;;;;5077252;28;20515;-88
2022/03/29 02:32:38;;;;;;;17.90;10.07;;;8.30;55.90;;;;;;5077480;28;20205;-89
2022/03/29 02:35:06;;;;;;;13.38;9.55;;;8.20;56.00;;;;;;5079552;28;20288;-88
2022/03/29 02:37:33;;;;;;;15.65;10.43;;;8.20;55.90;;;;;;5087427;28;20267;-89
2022/03/29 02:40:00;;;;;;;13.00;9.65;;;8.20;55.80;;;;;;5069257;28;20217;-89
2022/03/29 02:42:27;;;;;;;15.82;9.38;;;8.20;55.40;;;;;;5068265;28;20199;-88
2022/03/29 02:44:54;;;;;;;16.52;9.55;;;8.30;55.30;;;;;;5070876;28;20222;-88
2022/03/29 02:47:22;;;;;;;15.68;9.80;;;8.30;55.40;;;;;;5086940;28;20205;-89
2022/03/29 02:49:50;;;;;;;13.90;9.02;;;8.20;55.30;;;;;;5069199;28;20204;-88
2022/03/29 02:52:16;;;;;;;15.35;9.82;;;8.30;55.40;;;;;;5068918;28;20212;-89
2022/03/29 02:54:43;;;;;;;12.50;9.68;;;8.30;55.70;;;;;;5075706;28;20610;-89
2022/03/29 02:57:11;;;;;;;12.68;10.10;;;8.30;55.70;;;;;;5077484;28;20203;-89
2022/03/29 02:59:38;;;;;;;15.60;9.85;;;8.50;58.40;;;;;;5074395;28;20203;-89
2022/03/29 03:02:05;;;;;;;13.43;9.07;;;8.20;55.60;;;;;;5069129;28;20670;-88
2022/03/29 03:04:34;;;;;;;16.42;9.30;;;8.20;55.70;;;;;;5066868;28;20689;-89
2022/03/29 03:07:00;;;;;;;14.43;9.77;;;8.20;55.70;;;;;;5069254;28;20211;-89
2022/03/29 03:09:27;;;;;;;13.80;9.38;;;8.20;55.80;;;;;;5085112;28;20747;-89
2022/03/29 03:11:55;;;;;;;13.80;9.43;;;8.30;55.50;;;;;;5073952;28;20258;-89
2022/03/29 03:14:22;;;;;;;13.40;9.27;;;8.30;55.20;;;;;;5081934;28;20585;-89
2022/03/29 03:16:49;;;;;;;14.73;9.50;;;8.30;55.40;;;;;;5085953;28;20665;-89
2022/03/29 03:19:18;;;;;;;14.30;10.15;;;8.30;56.00;;;;;;5071906;28;20213;-89
2022/03/29 03:21:47;;;;;;;12.25;9.50;;;8.20;55.60;;;;;;5069986;28;20214;-89
2022/03/29 03:24:14;;;;;;;15.75;11.10;;;8.20;55.70;;;;;;5081772;28;20223;-88
2022/03/29 03:26:41;;;;;;;12.80;9.55;;;8.00;55.80;;;;;;5082052;28;20285;-89
2022/03/29 03:29:08;;;;;;;12.63;10.25;;;8.00;55.70;;;;;;5074288;28;20212;-88
2022/03/29 03:31:35;;;;;;;13.52;10.38;;;8.00;55.60;;;;;;5086329;28;20680;-89
2022/03/29 03:34:02;;;;;;;17.33;9.18;;;8.10;55.80;;;;;;5083610;28;20222;-89
2022/03/29 03:36:29;;;;;;;13.40;10.15;;;8.10;56.00;;;;;;5067301;28;20253;-88
2022/03/29 03:38:57;;;;;;;12.65;9.80;;;8.10;56.30;;;;;;5072273;28;20236;-88
2022/03/29 03:41:24;;;;;;;14.95;9.43;;;8.10;55.90;;;;;;5080227;28;20230;-89
2022/03/29 03:43:51;;;;;;;15.40;10.20;;;8.00;56.30;;;;;;5076474;28;20216;-89
2022/03/29 03:46:18;;;;;;;12.27;9.88;;;8.00;57.20;;;;;;5086555;28;20208;-88
2022/03/29 03:48:45;;;;;;;12.82;10.20;;;8.00;56.40;;;;;;5075687;28;20208;-88
2022/03/29 03:51:12;;;;;;;12.50;10.07;;;8.00;56.00;;;;;;5076573;28;20216;-88
2022/03/29 03:53:39;;;;;;;11.60;9.73;;;7.90;56.40;;;;;;5060208;28;20204;-89
2022/03/29 03:56:07;;;;;;;13.20;10.05;;;7.90;56.20;;;;;;5087243;28;20573;-88
2022/03/29 03:58:34;;;;;;;13.30;9.75;;;7.90;56.60;;;;;;5078499;28;20200;-89
2022/03/29 04:01:01;;;;;;;13.10;9.95;;;7.90;56.20;;;;;;5069975;28;20210;-88
2022/03/29 04:03:28;;;;;;;17.08;10.18;;;7.90;56.20;;;;;;5075223;28;20216;-88
2022/03/29 04:05:55;;;;;;;13.30;9.80;;;7.90;55.80;;;;;;5070158;28;20751;-88
2022/03/29 04:08:22;;;;;;;13.30;10.18;;;7.90;55.60;;;;;;5090929;28;20290;-89
2022/03/29 04:10:49;;;;;;;16.50;10.10;;;7.80;56.30;;;;;;5078870;28;20265;-89
2022/03/29 04:13:19;;;;;;;12.07;9.23;;;7.80;55.50;;;;;;5071404;28;20211;-88
2022/03/29 04:15:47;;;;;;;14.98;9.80;;;7.80;56.10;;;;;;5073687;28;20204;-89
2022/03/29 04:18:14;;;;;;;14.25;9.70;;;7.80;55.50;;;;;;5080142;28;20230;-88
2022/03/29 04:20:41;;;;;;;13.65;11.45;;;7.80;55.70;;;;;;5081226;28;20601;-89
2022/03/29 04:23:08;;;;;;;14.10;11.60;;;7.80;55.90;;;;;;5082873;28;20229;-88
2022/03/29 04:25:36;;;;;;;16.13;11.43;;;7.70;56.20;;;;;;5071142;28;20235;-89
2022/03/29 04:28:03;;;;;;;78.70;17.77;;;7.70;57.10;;;;;;5070609;28;20687;-89
2022/03/29 04:30:31;;;;;;;14.40;10.07;;;7.70;56.60;;;;;;5076050;28;20208;-89
2022/03/29 04:32:58;;;;;;;40.78;13.75;;;7.70;57.80;;;;;;5076713;28;20579;-89
2022/03/29 04:35:25;;;;;;;23.90;11.65;;;7.70;56.70;;;;;;5089125;28;20195;-89
2022/03/29 04:37:53;;;;;;;24.50;12.63;;;7.70;56.40;;;;;;5086266;28;20195;-89
2022/03/29 04:40:20;;;;;;;20.88;16.05;;;7.70;56.50;;;;;;5074026;28;20301;-89
2022/03/29 04:42:49;;;;;;;27.00;16.70;;;7.70;57.20;;;;;;5074336;28;20295;-88
2022/03/29 04:45:17;;;;;;;19.52;11.90;;;7.60;57.00;;;;;;5087804;28;20223;-89
2022/03/29 04:47:46;;;;;;;20.65;12.50;;;7.60;56.70;;;;;;5079779;28;20280;-89
2022/03/29 04:50:15;;;;;;;17.70;12.10;;;7.80;57.00;;;;;;5083132;28;20214;-89
2022/03/29 04:52:44;;;;;;;17.30;12.43;;;7.60;57.20;;;;;;5080246;28;20591;-89
2022/03/29 04:55:12;;;;;;;20.65;12.73;;;7.60;58.10;;;;;;5085767;28;20202;-89
2022/03/29 04:57:41;;;;;;;14.65;10.98;;;7.60;58.20;;;;;;5074278;28;20696;-89
2022/03/29 05:00:09;;;;;;;18.52;12.20;;;7.60;57.20;;;;;;5086337;28;20211;-89
2022/03/29 05:02:36;;;;;;;20.40;11.70;;;7.60;56.40;;;;;;5082862;28;20269;-88
2022/03/29 05:05:05;;;;;;;13.27;9.88;;;7.20;59.70;;;;;;5085700;28;20222;-88
2022/03/29 05:07:33;;;;;;;12.98;10.20;;;7.60;57.70;;;;;;5050424;28;20222;-89
2022/03/29 05:09:59;;;;;;;18.08;11.48;;;8.40;59.20;;;;;;5068438;28;20648;-89
2022/03/29 05:12:26;;;;;;;15.52;10.50;;;7.60;58.10;;;;;;5083617;28;20215;-88
2022/03/29 05:14:53;;;;;;;15.60;10.85;;;7.90;58.60;;;;;;5085524;28;20202;-88
2022/03/29 05:17:20;;;;;;;14.15;9.85;;;7.40;58.80;;;;;;5088160;28;20210;-88
2022/03/29 05:19:47;;;;;;;14.40;11.05;;;7.40;58.30;;;;;;5076395;28;20210;-89
2022/03/29 05:22:16;;;;;;;20.48;9.95;;;7.40;58.70;;;;;;5088333;28;20206;-87
2022/03/29 05:24:43;;;;;;;57.60;13.82;;;7.50;58.20;;;;;;5077750;28;20296;-87
2022/03/29 05:27:10;;;;;;;63.35;14.32;;;7.50;57.90;;;;;;5073766;28;20211;-86
2022/03/29 05:29:37;;;;;;;48.03;14.00;;;7.40;57.70;;;;;;5060970;28;20226;-87
2022/03/29 05:32:04;;;;;;;30.10;11.10;;;7.50;61.50;;;;;;5069301;28;20575;-87
2022/03/29 05:34:31;;;;;;;36.90;14.10;;;7.40;58.60;;;;;;5076949;28;20209;-87
2022/03/29 05:36:58;;;;;;;47.33;12.50;;;7.30;58.80;;;;;;5077170;28;20724;-87
2022/03/29 05:39:27;;;;;;;32.47;10.93;;;7.30;58.70;;;;;;5068239;28;20209;-86
2022/03/29 05:41:53;;;;;;;38.35;12.85;;;7.40;59.10;;;;;;5068510;28;20290;-87
2022/03/29 05:44:20;;;;;;;36.08;12.75;;;7.50;58.90;;;;;;5069051;28;20192;-89
2022/03/29 05:49:32;;;;;;;39.35;12.32;;;8.30;59.90;;;;;;5064156;28;20203;-89
2022/03/29 05:52:00;;;;;;;29.15;12.32;;;7.50;58.80;;;;;;5068590;28;20195;-89
2022/03/29 05:54:28;;;;;;;18.48;12.93;;;7.60;58.50;;;;;;5067654;28;20671;-89
2022/03/29 05:56:55;;;;;;;25.17;12.45;;;7.60;58.50;;;;;;5061646;28;20232;-89
2022/03/29 05:59:23;;;;;;;23.35;12.35;;;7.70;58.50;;;;;;5063168;28;20196;-89
2022/03/29 06:01:50;;;;;;;24.65;12.52;;;7.80;61.00;;;;;;5056314;28;20242;-89
2022/03/29 06:04:23;;;;;;;27.10;12.20;;;7.80;58.50;;;;;;5062989;28;20200;-89
2022/03/29 06:06:50;;;;;;;22.63;12.63;;;7.90;58.00;;;;;;5068208;28;20234;-89
2022/03/29 06:09:17;;;;;;;26.02;12.60;;;8.00;58.70;;;;;;5067608;28;20222;-88
2022/03/29 06:11:48;;;;;;;33.90;12.48;;;8.00;60.80;;;;;;5069487;28;20203;-90
2022/03/29 06:14:15;;;;;;;17.63;12.48;;;8.10;59.90;;;;;;5069100;28;20636;-90
2022/03/29 06:16:43;;;;;;;26.90;14.18;;;8.20;58.90;;;;;;5064435;28;20688;-88
2022/03/29 06:19:10;;;;;;;21.90;12.02;;;8.30;58.20;;;;;;5068364;28;20202;-88
2022/03/29 06:21:37;;;;;;;19.58;12.55;;;8.30;58.50;;;;;;5068357;28;20204;-89
2022/03/29 06:24:05;;;;;;;22.55;13.35;;;8.40;58.30;;;;;;5069299;28;20195;-89
2022/03/29 06:26:33;;;;;;;16.40;12.23;;;8.50;58.10;;;;;;5066650;28;20686;-89
2022/03/29 06:29:01;;;;;;;16.38;12.93;;;8.50;57.50;;;;;;5083029;28;20203;-87
2022/03/29 06:31:28;;;;;;;15.38;11.48;;;8.60;57.60;;;;;;5071998;28;20268;-87
2022/03/29 06:33:55;;;;;;;17.52;12.73;;;8.70;57.50;;;;;;5066903;28;20231;-87
2022/03/29 06:36:22;;;;;;;17.35;13.55;;;8.80;57.10;;;;;;5067748;28;20241;-87
2022/03/29 06:38:49;;;;;;;17.33;13.95;;;8.80;57.20;;;;;;5065262;28;20239;-87
2022/03/29 06:41:16;;;;;;;16.92;12.10;;;8.90;57.90;;;;;;5061951;28;20201;-87
2022/03/29 06:43:43;;;;;;;18.33;12.27;;;9.00;57.80;;;;;;5059596;28;20263;-87
2022/03/29 06:46:11;;;;;;;18.15;11.95;;;9.10;57.20;;;;;;5059838;28;20692;-86
2022/03/29 06:48:41;;;;;;;15.85;11.95;;;9.20;56.60;;;;;;5067915;28;20753;-87
2022/03/29 06:51:09;;;;;;;20.55;12.80;;;9.30;56.00;;;;;;5069156;28;20202;-88
2022/03/29 06:53:38;;;;;;;16.00;11.82;;;9.40;55.50;;;;;;5061436;28;20209;-87
2022/03/29 06:56:05;;;;;;;25.25;13.13;;;9.40;55.30;;;;;;5065865;28;20198;-88
2022/03/29 06:58:32;;;;;;;17.90;12.43;;;9.50;55.00;;;;;;5061224;28;20215;-88
2022/03/29 07:00:59;;;;;;;18.75;12.45;;;9.50;55.20;;;;;;5062754;28;20231;-86
2022/03/29 07:03:29;;;;;;;17.17;11.88;;;9.60;55.20;;;;;;5057653;28;20213;-87
2022/03/29 07:05:58;;;;;;;23.73;11.82;;;9.60;55.10;;;;;;5061283;28;20225;-87
2022/03/29 07:11:42;;;;;;;16.07;11.60;;;9.70;55.10;;;;;;5071229;28;20622;-90
2022/03/29 07:14:36;;;;;;;15.13;11.33;;;9.80;55.10;;;;;;5060969;28;20635;-91
2022/03/29 07:17:23;;;;;;;15.83;12.20;;;9.90;55.00;;;;;;5069581;28;20635;-91
2022/03/29 07:19:56;;;;;;;17.77;12.00;;;10.00;53.70;;;;;;5066891;28;20911;-90
2022/03/29 07:22:44;;;;;;;13.60;11.07;;;10.00;54.80;;;;;;5066850;28;20957;-89
2022/03/29 07:25:12;;;;;;;17.67;11.87;;;10.10;54.60;;;;;;5060604;28;20694;-90
2022/03/29 07:27:39;;;;;;;16.17;11.30;;;10.20;54.30;;;;;;5066117;28;20724;-89
2022/03/29 07:30:07;;;;;;;15.30;11.97;;;10.30;54.20;;;;;;5061204;28;20622;-90
2022/03/29 07:32:42;;;;;;;18.07;12.50;;;10.30;54.10;;;;;;5064908;28;21206;-88
2022/03/29 07:35:10;;;;;;;18.23;11.50;;;10.40;54.50;;;;;;5063069;28;20721;-89
2022/03/29 07:37:37;;;;;;;21.03;13.27;;;10.50;54.50;;;;;;5070829;28;20707;-89
2022/03/29 07:40:05;;;;;;;25.33;13.37;;;10.70;54.60;;;;;;5084715;28;20683;-89
2022/03/29 07:42:35;;;;;;;17.90;13.00;;;10.60;54.80;;;;;;5070362;28;20674;-88
2022/03/29 07:45:03;;;;;;;19.27;12.30;;;10.60;54.50;;;;;;5069073;28;21110;-89
2022/03/29 07:47:30;;;;;;;17.43;12.07;;;10.70;53.90;;;;;;5065215;28;20692;-89
2022/03/29 07:49:57;;;;;;;20.83;11.83;;;10.80;54.00;;;;;;5050652;28;21178;-89
2022/03/29 07:52:25;;;;;;;24.63;12.90;;;10.80;53.70;;;;;;5067312;28;20696;-88
2022/03/29 07:54:53;;;;;;;16.70;11.70;;;;;;;;;;5084620;28;20621;-88
2022/03/29 07:57:20;;;;;;;17.63;13.63;;;11.00;53.10;;;;;;5081158;28;20645;-88
2022/03/29 07:59:47;;;;;;;14.63;10.73;;;11.30;55.10;;;;;;5081951;28;21061;-88
2022/03/29 08:02:14;;;;;;;17.27;12.43;;;11.10;53.30;;;;;;5089615;28;20608;-88
2022/03/29 08:04:41;;;;;;;19.80;11.27;;;11.20;53.10;;;;;;5076306;28;20633;-89
2022/03/29 08:07:08;;;;;;;16.07;11.87;;;11.30;52.90;;;;;;5073653;28;21262;-88
2022/03/29 08:09:37;;;;;;;27.33;13.17;;;11.40;53.30;;;;;;5071438;28;20652;-88
2022/03/29 08:12:04;;;;;;;21.07;11.07;;;11.50;53.30;;;;;;5074536;28;21201;-88
2022/03/29 08:14:32;;;;;;;15.87;11.50;;;11.60;52.90;;;;;;5072639;28;20625;-89
2022/03/29 08:16:59;;;;;;;21.07;12.83;;;11.70;52.50;;;;;;5070461;28;20632;-88
2022/03/29 08:19:26;;;;;;;17.67;12.27;;;11.80;52.30;;;;;;5065476;28;20621;-88
2022/03/29 08:21:53;;;;;;;17.97;12.20;;;12.00;52.50;;;;;;5067386;28;20633;-88
2022/03/29 08:24:23;;;;;;;17.43;13.57;;;12.10;52.40;;;;;;5067514;28;20640;-88
2022/03/29 08:26:55;;;;;;;20.50;12.63;;;12.10;52.30;;;;;;5062879;28;20686;-88
2022/03/29 08:29:22;;;;;;;17.00;12.87;;;12.20;51.80;;;;;;5059747;28;20622;-88
2022/03/29 08:31:52;;;;;;;27.47;13.80;;;12.30;51.10;;;;;;5075178;28;20618;-88
2022/03/29 08:34:21;;;;;;;16.90;12.90;;;12.20;52.30;;;;;;5070144;28;20629;-88
2022/03/29 08:36:49;;;;;;;15.73;12.13;;;12.60;51.50;;;;;;5068817;28;20702;-88
2022/03/29 08:39:16;;;;;;;16.57;11.93;;;12.60;51.00;;;;;;5072140;28;20653;-88
2022/03/29 08:41:49;;;;;;;26.07;12.80;;;12.60;50.70;;;;;;5067464;28;20611;-89
2022/03/29 08:44:27;;;;;;;13.63;12.20;;;12.60;49.70;;;;;;5071254;28;20618;-88
2022/03/29 08:47:00;;;;;;;17.23;12.23;;;12.80;50.20;;;;;;5068414;28;20657;-88
2022/03/29 08:49:48;;;;;;;15.70;13.23;;;13.50;51.40;;;;;;5065186;28;20610;-88
2022/03/29 08:52:17;;;;;;;15.80;12.60;;;12.90;52.00;;;;;;5063673;28;20641;-88
2022/03/29 08:54:45;;;;;;;16.60;12.53;;;;;;;;;;5062082;28;20646;-89
2022/03/29 08:57:12;;;;;;;20.83;13.57;;;13.00;50.20;;;;;;5063220;28;20816;-90
2022/03/29 08:59:42;;;;;;;17.60;12.37;;;13.10;50.00;;;;;;5061758;28;20613;-88
2022/03/29 09:02:10;;;;;;;18.13;12.50;;;13.20;49.90;;;;;;5073381;28;20794;-88
2022/03/29 09:04:37;;;;;;;18.10;12.50;;;13.20;50.20;;;;;;5073675;28;20635;-89
2022/03/29 09:07:04;;;;;;;16.67;13.53;;;13.40;49.90;;;;;;5058579;28;20638;-88
2022/03/29 09:09:34;;;;;;;17.17;12.40;;;13.40;49.30;;;;;;5061182;28;20633;-89
2022/03/29 09:12:11;;;;;;;19.27;14.30;;;13.60;50.20;;;;;;5081565;28;20621;-88
2022/03/29 09:14:52;;;;;;;16.87;12.47;;;13.80;49.50;;;;;;5085448;28;21038;-89
2022/03/29 09:17:27;;;;;;;18.60;13.40;;;13.80;49.30;;;;;;5079264;28;20637;-88
2022/03/29 09:19:55;;;;;;;25.00;13.00;;;14.00;48.60;;;;;;5079384;28;20618;-87
2022/03/29 09:22:39;;;;;;;20.30;12.73;;;14.10;48.40;;;;;;5086371;28;20641;-88
2022/03/29 09:25:07;;;;;;;17.47;12.80;;;14.20;49.30;;;;;;5088756;28;20625;-88
2022/03/29 09:27:49;;;;;;;14.97;12.30;;;14.40;48.80;;;;;;5070875;28;20664;-88
2022/03/29 09:30:18;;;;;;;15.03;11.23;;;14.50;49.00;;;;;;5070308;28;20981;-88
2022/03/29 09:33:04;;;;;;;15.07;11.40;;;14.60;48.40;;;;;;5061922;28;20635;-88
2022/03/29 09:35:32;;;;;;;17.00;11.77;;;14.70;48.40;;;;;;5060071;28;20695;-88
2022/03/29 09:38:01;;;;;;;14.33;10.67;;;14.80;46.30;;;;;;5065520;28;20628;-88
2022/03/29 09:40:35;;;;;;;15.80;11.43;;;14.90;47.40;;;;;;5061988;28;20698;-87
2022/03/29 09:43:04;;;;;;;17.07;11.03;;;15.00;46.60;;;;;;5049559;28;21015;-88
2022/03/29 09:45:45;;;;;;;13.97;11.27;;;15.10;46.90;;;;;;5054762;28;20617;-88
2022/03/29 09:48:27;;;;;;;14.83;11.70;;;15.20;46.50;;;;;;5060474;28;20624;-89
2022/03/29 09:50:56;;;;;;;16.10;11.03;;;15.40;47.10;;;;;;5060783;28;20981;-88
2022/03/29 09:53:47;;;;;;;18.63;11.83;;;15.40;47.00;;;;;;5069271;28;20621;-87
2022/03/29 09:56:15;;;;;;;15.27;11.00;;;15.60;46.60;;;;;;5066819;28;20639;-89
2022/03/29 09:58:43;;;;;;;15.07;11.57;;;15.70;45.80;;;;;;5064885;28;20613;-88
2022/03/29 10:01:25;;;;;;;20.50;12.10;;;15.60;45.40;;;;;;5067292;28;20621;-87
2022/03/29 10:03:53;;;;;;;12.17;10.60;;;15.70;45.90;;;;;;5067875;28;20622;-87
2022/03/29 10:06:23;;;;;;;12.20;10.90;;;15.60;44.60;;;;;;5068879;28;20660;-86
2022/03/29 10:11:37;;;;;;;13.70;10.87;;;15.90;46.70;;;;;;5075943;28;21251;-87
2022/03/29 10:14:04;;;;;;;15.93;10.60;;;16.10;45.10;;;;;;5074986;28;20658;-86
2022/03/29 10:16:33;;;;;;;18.20;12.43;;;16.10;45.00;;;;;;5069658;28;20704;-85
2022/03/29 10:19:01;;;;;;;16.90;10.93;;;16.30;44.70;;;;;;5077047;28;20767;-85
2022/03/29 10:21:29;;;;;;;13.70;10.37;;;16.50;45.50;;;;;;5068763;28;20623;-86
2022/03/29 10:23:56;;;;;;;15.77;11.17;;;16.50;44.80;;;;;;5088114;28;20663;-86
2022/03/29 10:26:25;;;;;;;20.60;11.67;;;16.50;45.10;;;;;;5069933;28;21284;-86
2022/03/29 10:28:52;;;;;;;14.07;11.60;;;16.50;44.20;;;;;;5080601;28;20618;-87
2022/03/29 10:31:33;;;;;;;14.90;11.50;;;16.50;44.60;;;;;;5073120;28;20635;-86
2022/03/29 10:34:16;;;;;;;14.80;10.73;;;16.50;44.80;;;;;;5080122;28;20647;-86
2022/03/29 10:37:09;;;;;;;15.60;12.03;;;16.60;45.30;;;;;;5054297;28;21232;-86
2022/03/29 10:39:51;;;;;;;17.30;12.20;;;16.80;45.30;;;;;;5070535;28;20728;-87
2022/03/29 10:42:47;;;;;;;22.80;11.13;;;16.80;44.60;;;;;;5080840;28;20727;-85
2022/03/29 10:45:17;;;;;;;13.83;12.20;;;17.00;45.30;;;;;;5061456;28;20631;-86
2022/03/29 10:47:47;;;;;;;17.60;13.37;;;17.10;45.80;;;;;;5089271;28;20643;-86
2022/03/29 10:50:16;;;;;;;16.37;12.60;;;17.10;45.70;;;;;;5069950;28;21167;-87
2022/03/29 10:52:45;;;;;;;17.33;12.90;;;17.10;44.90;;;;;;5066336;28;20637;-86
2022/03/29 10:55:18;;;;;;;22.90;12.77;;;17.10;45.30;;;;;;5065183;28;20716;-85
2022/03/29 10:58:08;;;;;;;17.50;13.23;;;17.10;45.30;;;;;;5079883;28;20663;-85
2022/03/29 11:00:37;;;;;;;18.27;12.87;;;17.20;44.50;;;;;;5066128;28;20626;-86
2022/03/29 11:03:15;;;;;;;17.50;12.37;;;17.20;44.30;;;;;;5059736;28;20629;-86
2022/03/29 11:06:11;;;;;;;16.67;12.37;;;17.20;44.80;;;;;;5068624;28;21113;-85
2022/03/29 11:08:40;;;;;;;15.70;12.93;;;17.20;44.30;;;;;;5065520;28;20826;-85
2022/03/29 11:11:09;;;;;;;14.53;12.17;;;17.20;44.70;;;;;;5077822;28;20635;-85
2022/03/29 11:13:38;;;;;;;15.37;11.70;;;17.20;45.00;;;;;;5082289;28;21235;-85
2022/03/29 11:16:30;;;;;;;16.83;12.47;;;17.10;44.10;;;;;;5072501;28;20690;-85
2022/03/29 11:18:59;;;;;;;16.20;12.47;;;17.10;44.20;;;;;;5073953;28;20983;-85
2022/03/29 11:21:44;;;;;;;15.90;12.40;;;17.10;44.20;;;;;;5070983;28;20628;-84
2022/03/29 11:24:13;;;;;;;16.87;13.50;;;17.10;44.00;;;;;;5085449;28;20631;-85
2022/03/29 11:26:55;;;;;;;14.37;11.90;;;17.00;43.60;;;;;;5061155;28;20682;-85
2022/03/29 11:29:23;;;;;;;12.70;11.07;;;16.90;43.50;;;;;;5073851;28;21080;-85
2022/03/29 11:31:51;;;;;;;21.03;13.90;;;17.10;44.20;;;;;;5091810;28;20624;-86
2022/03/29 11:34:19;;;;;;;22.30;13.40;;;17.30;44.00;;;;;;5076100;28;20691;-85
2022/03/29 11:36:46;;;;;;;16.87;14.07;;;17.50;44.50;;;;;;5070962;28;20719;-85
2022/03/29 11:39:27;;;;;;;26.00;15.80;;;17.50;44.70;;;;;;5078399;28;20628;-85
2022/03/29 11:41:56;;;;;;;16.60;13.60;;;17.60;44.90;;;;;;5071028;28;21165;-85
2022/03/29 11:44:26;;;;;;;17.90;13.30;;;17.60;44.70;;;;;;5086014;28;20715;-86
2022/03/29 11:46:56;;;;;;;17.57;14.20;;;17.70;44.60;;;;;;5088974;28;21092;-85
2022/03/29 11:49:27;;;;;;;21.23;14.37;;;17.70;43.90;;;;;;5071857;28;21166;-86
2022/03/29 11:52:06;;;;;;;16.40;12.87;;;17.80;43.90;;;;;;5071121;28;20629;-85
2022/03/29 11:54:43;;;;;;;16.57;14.20;;;17.90;44.10;;;;;;5083348;28;20655;-85
2022/03/29 11:57:21;;;;;;;16.40;13.23;;;18.00;43.40;;;;;;5084409;28;21244;-85
2022/03/29 11:59:49;;;;;;;16.80;13.40;;;18.10;43.40;;;;;;5088815;28;20669;-86
2022/03/29 12:02:18;;;;;;;16.40;13.30;;;17.80;42.60;;;;;;5084161;28;20621;-86
2022/03/29 12:04:47;;;;;;;16.83;13.73;;;17.80;43.60;;;;;;5075003;28;20625;-86
2022/03/29 12:07:14;;;;;;;16.60;12.67;;;18.00;43.30;;;;;;5075202;28;20680;-86
2022/03/29 12:09:47;;;;;;;15.63;13.13;;;18.10;43.90;;;;;;5091223;28;20620;-85
2022/03/29 12:12:15;;;;;;;20.93;13.83;;;18.10;43.90;;;;;;5078795;28;20976;-85
2022/03/29 12:14:42;;;;;;;17.70;12.67;;;18.20;43.90;;;;;;5061911;28;20625;-86
2022/03/29 12:17:09;;;;;;;14.03;12.63;;;18.30;42.60;;;;;;5062569;28;20656;-87
2022/03/29 12:19:39;;;;;;;13.87;12.43;;;18.10;42.90;;;;;;5068203;28;20698;-85
2022/03/29 12:22:11;;;;;;;15.90;12.97;;;18.10;43.40;;;;;;5054062;28;20654;-86
2022/03/29 12:24:42;;;;;;;16.50;13.10;;;18.10;43.00;;;;;;5068916;28;20716;-87
2022/03/29 12:27:12;;;;;;;16.07;13.50;;;18.10;43.70;;;;;;5079890;28;20645;-85
2022/03/29 12:29:42;;;;;;;15.97;13.60;;;18.30;43.20;;;;;;5065737;28;21225;-86
2022/03/29 12:32:09;;;;;;;17.37;13.63;;;18.40;43.10;;;;;;5067128;28;21154;-86
2022/03/29 12:34:37;;;;;;;15.37;12.70;;;18.40;43.10;;;;;;5088163;28;20654;-85
2022/03/29 12:37:13;;;;;;;17.33;13.30;;;18.40;43.40;;;;;;5086463;28;20763;-86
2022/03/29 12:39:42;;;;;;;17.20;13.20;;;18.40;42.90;;;;;;5076139;28;20684;-85
2022/03/29 12:42:11;;;;;;;16.63;13.30;;;18.30;42.60;;;;;;5070124;28;20664;-85
2022/03/29 12:44:43;;;;;;;15.93;12.50;;;18.30;43.00;;;;;;5082099;28;20689;-85
2022/03/29 12:47:11;;;;;;;14.53;13.03;;;18.40;43.20;;;;;;5087267;28;20683;-85
2022/03/29 12:49:39;;;;;;;18.60;13.23;;;18.20;42.60;;;;;;5086768;28;20713;-87
2022/03/29 12:52:10;;;;;;;17.30;13.00;;;18.20;42.10;;;;;;5088094;28;21079;-86
2022/03/29 12:54:39;;;;;;;18.80;13.20;;;18.20;42.80;;;;;;5070038;28;20717;-85
2022/03/29 12:57:07;;;;;;;15.07;13.40;;;18.20;43.10;;;;;;5069965;28;20716;-85